UTA382 ULLI-UUWW
Flight info
| Callsign | UTA382 |
|---|---|
| Flight time | 1h 8m |
| Altitude | 35000 |
| Route | SUGIN1B SUGIN T873 NIRGI T73 DESUD T834 ADOKU/K0833F290 T834 BEKIP BEKIP3B |
| Aircraft | B738/M-SDE2E3FGHIRWXY/LB1 |
Departure
| Time | 2026-05-05 14:41 |
|---|---|
| Airport | Pulkovo Airport (ULLI) |
Arrival
| Time | 2026-05-05 15:50 |
|---|---|
| Airport | Vnukovo International Airport (UUWW) |
| Time | Latitude | Longitude | Altitude | Speed | Heading |
|---|---|---|---|---|---|
| 2026-05-05 14:20 | 59.79780 | 30.26691 | 87 ft | 0 kts | 94° |
| 2026-05-05 14:29 | 59.79781 | 30.26675 | 87 ft | 2 kts | 82° |
| 2026-05-05 14:29 | 59.79779 | 30.26646 | 87 ft | 2 kts | 87° |
| 2026-05-05 14:29 | 59.79778 | 30.26616 | 87 ft | 2 kts | 85° |
| 2026-05-05 14:29 | 59.79777 | 30.26588 | 87 ft | 0 kts | 86° |
| 2026-05-05 14:30 | 59.79777 | 30.26561 | 87 ft | 2 kts | 104° |
| 2026-05-05 14:30 | 59.79785 | 30.26535 | 87 ft | 2 kts | 140° |
| 2026-05-05 14:30 | 59.79798 | 30.26522 | 87 ft | 2 kts | 174° |
| 2026-05-05 14:30 | 59.79812 | 30.26525 | 87 ft | 0 kts | 204° |
| 2026-05-05 14:31 | 59.79817 | 30.26531 | 87 ft | 1 kts | 210° |
| 2026-05-05 14:31 | 59.79819 | 30.26533 | 87 ft | 0 kts | 208° |
| 2026-05-05 14:33 | 59.79818 | 30.26532 | 87 ft | 0 kts | 208° |
| 2026-05-05 14:33 | 59.79797 | 30.26520 | 87 ft | 3 kts | 190° |
| 2026-05-05 14:34 | 59.79770 | 30.26508 | 87 ft | 3 kts | 194° |
| 2026-05-05 14:34 | 59.79744 | 30.26494 | 87 ft | 3 kts | 198° |
| 2026-05-05 14:34 | 59.79717 | 30.26477 | 87 ft | 5 kts | 197° |
| 2026-05-05 14:34 | 59.79697 | 30.26465 | 87 ft | 5 kts | 198° |
| 2026-05-05 14:35 | 59.79669 | 30.26448 | 87 ft | 4 kts | 195° |
| 2026-05-05 14:35 | 59.79631 | 30.26427 | 87 ft | 5 kts | 196° |
| 2026-05-05 14:35 | 59.79587 | 30.26402 | 87 ft | 8 kts | 196° |
| 2026-05-05 14:36 | 59.79538 | 30.26373 | 87 ft | 6 kts | 197° |
| 2026-05-05 14:36 | 59.79502 | 30.26383 | 87 ft | 5 kts | 134° |
| 2026-05-05 14:36 | 59.79487 | 30.26443 | 87 ft | 5 kts | 108° |
| 2026-05-05 14:36 | 59.79465 | 30.26586 | 87 ft | 14 kts | 105° |
| 2026-05-05 14:37 | 59.79439 | 30.26763 | 87 ft | 12 kts | 106° |
| 2026-05-05 14:37 | 59.79416 | 30.26922 | 87 ft | 12 kts | 106° |
| 2026-05-05 14:37 | 59.79392 | 30.27082 | 87 ft | 11 kts | 106° |
| 2026-05-05 14:37 | 59.79366 | 30.27255 | 87 ft | 13 kts | 107° |
| 2026-05-05 14:38 | 59.79337 | 30.27448 | 87 ft | 16 kts | 106° |
| 2026-05-05 14:38 | 59.79306 | 30.27654 | 87 ft | 15 kts | 106° |
| 2026-05-05 14:38 | 59.79277 | 30.27846 | 87 ft | 13 kts | 107° |
| 2026-05-05 14:38 | 59.79251 | 30.28022 | 87 ft | 12 kts | 105° |
| 2026-05-05 14:39 | 59.79224 | 30.28173 | 87 ft | 10 kts | 124° |
| 2026-05-05 14:39 | 59.79168 | 30.28238 | 87 ft | 8 kts | 165° |
| 2026-05-05 14:39 | 59.79108 | 30.28265 | 87 ft | 11 kts | 169° |
| 2026-05-05 14:39 | 59.79053 | 30.28212 | 87 ft | 7 kts | 252° |
| 2026-05-05 14:40 | 59.79059 | 30.28120 | 87 ft | 0 kts | 285° |
| 2026-05-05 14:40 | 59.79069 | 30.28049 | 87 ft | 30 kts | 286° |
| 2026-05-05 14:40 | 59.79209 | 30.27118 | 87 ft | 109 kts | 286° |
| 2026-05-05 14:40 | 59.79496 | 30.25213 | 99 ft | 174 kts | 287° |
| 2026-05-05 14:41 | 59.79872 | 30.22714 | 463 ft | 206 kts | 287° |
| 2026-05-05 14:41 | 59.80267 | 30.20029 | 1594 ft | 210 kts | 285° |
| 2026-05-05 14:41 | 59.80651 | 30.17387 | 2809 ft | 199 kts | 284° |
| 2026-05-05 14:41 | 59.81049 | 30.14724 | 3507 ft | 209 kts | 284° |
| 2026-05-05 14:42 | 59.81471 | 30.11982 | 4408 ft | 211 kts | 283° |
| 2026-05-05 14:42 | 59.81901 | 30.09158 | 5171 ft | 217 kts | 282° |
| 2026-05-05 14:42 | 59.82318 | 30.06319 | 5948 ft | 222 kts | 281° |
| 2026-05-05 14:42 | 59.82636 | 30.03339 | 6766 ft | 220 kts | 269° |
| 2026-05-05 14:43 | 59.82447 | 30.00446 | 7559 ft | 216 kts | 248° |
| 2026-05-05 14:43 | 59.81716 | 29.97881 | 8361 ft | 215 kts | 234° |
| 2026-05-05 14:43 | 59.80693 | 29.95768 | 9089 ft | 220 kts | 221° |
| 2026-05-05 14:43 | 59.79283 | 29.94427 | 9795 ft | 231 kts | 204° |
| 2026-05-05 14:44 | 59.77732 | 29.93646 | 10434 ft | 238 kts | 199° |
| 2026-05-05 14:44 | 59.76035 | 29.93471 | 11102 ft | 253 kts | 182° |
| 2026-05-05 14:44 | 59.74333 | 29.94528 | 11746 ft | 273 kts | 161° |
| 2026-05-05 14:44 | 59.72790 | 29.97003 | 12162 ft | 302 kts | 138° |
| 2026-05-05 14:45 | 59.71718 | 30.00729 | 12494 ft | 329 kts | 117° |
| 2026-05-05 14:45 | 59.70987 | 30.05185 | 12785 ft | 350 kts | 111° |
| 2026-05-05 14:45 | 59.70355 | 30.09884 | 13130 ft | 365 kts | 109° |
| 2026-05-05 14:45 | 59.69754 | 30.14913 | 13433 ft | 385 kts | 103° |
| 2026-05-05 14:46 | 59.69504 | 30.20237 | 13761 ft | 403 kts | 96° |
| 2026-05-05 14:46 | 59.69387 | 30.25903 | 14152 ft | 418 kts | 94° |
| 2026-05-05 14:46 | 59.69287 | 30.31771 | 14399 ft | 435 kts | 96° |
| 2026-05-05 14:46 | 59.68997 | 30.37764 | 14764 ft | 446 kts | 101° |
| 2026-05-05 14:47 | 59.68476 | 30.43828 | 15499 ft | 448 kts | 104° |
| 2026-05-05 14:47 | 59.67840 | 30.49862 | 16144 ft | 453 kts | 105° |
| 2026-05-05 14:47 | 59.67150 | 30.55955 | 16843 ft | 456 kts | 107° |
| 2026-05-05 14:47 | 59.66447 | 30.62042 | 17465 ft | 461 kts | 106° |
| 2026-05-05 14:48 | 59.65734 | 30.68256 | 18177 ft | 463 kts | 107° |
| 2026-05-05 14:48 | 59.65071 | 30.74441 | 18744 ft | 469 kts | 105° |
| 2026-05-05 14:48 | 59.64481 | 30.80833 | 19325 ft | 475 kts | 103° |
| 2026-05-05 14:48 | 59.63953 | 30.87192 | 19922 ft | 479 kts | 102° |
| 2026-05-05 14:49 | 59.63434 | 30.93722 | 20531 ft | 482 kts | 102° |
| 2026-05-05 14:49 | 59.62915 | 31.00287 | 21074 ft | 486 kts | 102° |
| 2026-05-05 14:49 | 59.62392 | 31.06806 | 21676 ft | 488 kts | 102° |
| 2026-05-05 14:49 | 59.61847 | 31.13453 | 22168 ft | 493 kts | 102° |
| 2026-05-05 14:50 | 59.61291 | 31.20132 | 22720 ft | 496 kts | 102° |
| 2026-05-05 14:50 | 59.60729 | 31.26780 | 23274 ft | 499 kts | 102° |
| 2026-05-05 14:50 | 59.60148 | 31.33565 | 23779 ft | 503 kts | 102° |
| 2026-05-05 14:50 | 59.59556 | 31.40388 | 24325 ft | 506 kts | 102° |
| 2026-05-05 14:51 | 59.58963 | 31.47168 | 24848 ft | 509 kts | 102° |
| 2026-05-05 14:51 | 59.58356 | 31.54052 | 25373 ft | 512 kts | 102° |
| 2026-05-05 14:51 | 59.57744 | 31.60945 | 25839 ft | 516 kts | 102° |
| 2026-05-05 14:51 | 59.57120 | 31.67936 | 26388 ft | 517 kts | 103° |
| 2026-05-05 14:52 | 59.56500 | 31.74845 | 26873 ft | 519 kts | 103° |
| 2026-05-05 14:52 | 59.55867 | 31.81847 | 27589 ft | 515 kts | 103° |
| 2026-05-05 14:52 | 59.55249 | 31.88668 | 28306 ft | 511 kts | 103° |
| 2026-05-05 14:52 | 59.54564 | 31.95726 | 28917 ft | 509 kts | 106° |
| 2026-05-05 14:53 | 59.53714 | 32.02228 | 29448 ft | 505 kts | 112° |
| 2026-05-05 14:53 | 59.52443 | 32.08606 | 30023 ft | 497 kts | 120° |
| 2026-05-05 14:53 | 59.50838 | 32.14489 | 30543 ft | 491 kts | 126° |
| 2026-05-05 14:53 | 59.48936 | 32.20013 | 31047 ft | 485 kts | 133° |
| 2026-05-05 14:54 | 59.46811 | 32.24998 | 31527 ft | 479 kts | 138° |
| 2026-05-05 14:54 | 59.44484 | 32.29643 | 32065 ft | 473 kts | 141° |
| 2026-05-05 14:54 | 59.42100 | 32.34067 | 32521 ft | 471 kts | 142° |
| 2026-05-05 14:54 | 59.39695 | 32.38432 | 32930 ft | 471 kts | 143° |
| 2026-05-05 14:55 | 59.36520 | 32.44209 | 33553 ft | 468 kts | 142° |
| 2026-05-05 14:55 | 59.34945 | 32.47109 | 33824 ft | 467 kts | 142° |
| 2026-05-05 14:55 | 59.32616 | 32.51430 | 34199 ft | 467 kts | 141° |
| 2026-05-05 14:55 | 59.30269 | 32.55833 | 34659 ft | 464 kts | 141° |
| 2026-05-05 14:56 | 59.27978 | 32.60162 | 34932 ft | 463 kts | 141° |
| 2026-05-05 14:56 | 59.25653 | 32.64570 | 35090 ft | 465 kts | 141° |
| 2026-05-05 14:56 | 59.23358 | 32.68933 | 35288 ft | 464 kts | 141° |
| 2026-05-05 14:56 | 59.21029 | 32.73368 | 35470 ft | 465 kts | 141° |
| 2026-05-05 14:57 | 59.18732 | 32.77741 | 35621 ft | 466 kts | 141° |
| 2026-05-05 14:57 | 59.16401 | 32.82174 | 35767 ft | 467 kts | 141° |
| 2026-05-05 14:57 | 59.14094 | 32.86557 | 35953 ft | 466 kts | 141° |
| 2026-05-05 14:57 | 59.11768 | 32.90971 | 36152 ft | 466 kts | 141° |
| 2026-05-05 14:58 | 59.09436 | 32.95388 | 36365 ft | 467 kts | 141° |
| 2026-05-05 14:58 | 59.07137 | 32.99733 | 36579 ft | 467 kts | 141° |
| 2026-05-05 14:58 | 59.04798 | 33.04147 | 36708 ft | 469 kts | 141° |
| 2026-05-05 14:58 | 59.02449 | 33.08567 | 36717 ft | 471 kts | 141° |
| 2026-05-05 14:59 | 58.97776 | 33.17347 | 36732 ft | 469 kts | 141° |
| 2026-05-05 14:59 | 58.93117 | 33.26067 | 36735 ft | 469 kts | 141° |
| 2026-05-05 15:00 | 58.88430 | 33.34796 | 36725 ft | 469 kts | 141° |
| 2026-05-05 15:00 | 58.83757 | 33.43467 | 36736 ft | 468 kts | 141° |
| 2026-05-05 15:01 | 58.79075 | 33.52124 | 36736 ft | 469 kts | 141° |
| 2026-05-05 15:01 | 58.74366 | 33.60793 | 36738 ft | 469 kts | 141° |
| 2026-05-05 15:02 | 58.69637 | 33.69463 | 36740 ft | 468 kts | 142° |
| 2026-05-05 15:02 | 58.64938 | 33.78047 | 36749 ft | 468 kts | 142° |
| 2026-05-05 15:03 | 58.60233 | 33.86606 | 36765 ft | 469 kts | 142° |
| 2026-05-05 15:03 | 58.55491 | 33.95195 | 36764 ft | 469 kts | 142° |
| 2026-05-05 15:04 | 58.50754 | 34.03744 | 36768 ft | 469 kts | 142° |
| 2026-05-05 15:04 | 58.46023 | 34.12251 | 36773 ft | 470 kts | 142° |
| 2026-05-05 15:05 | 58.38857 | 34.25073 | 36774 ft | 470 kts | 142° |
| 2026-05-05 15:06 | 58.34133 | 34.33487 | 36769 ft | 469 kts | 142° |
| 2026-05-05 15:06 | 58.29330 | 34.42008 | 36770 ft | 470 kts | 142° |
| 2026-05-05 15:07 | 58.24548 | 34.50450 | 36765 ft | 472 kts | 141° |
| 2026-05-05 15:07 | 58.19759 | 34.58871 | 36760 ft | 471 kts | 142° |
| 2026-05-05 15:08 | 58.14837 | 34.66958 | 36762 ft | 471 kts | 145° |
| 2026-05-05 15:08 | 58.09798 | 34.74828 | 36763 ft | 471 kts | 146° |
| 2026-05-05 15:09 | 58.04767 | 34.82643 | 36766 ft | 469 kts | 146° |
| 2026-05-05 15:09 | 57.99733 | 34.90477 | 36772 ft | 470 kts | 145° |
| 2026-05-05 15:10 | 57.94715 | 34.98296 | 36778 ft | 471 kts | 145° |
| 2026-05-05 15:10 | 57.89688 | 35.06118 | 36795 ft | 470 kts | 145° |
| 2026-05-05 15:11 | 57.84639 | 35.13957 | 36789 ft | 470 kts | 145° |
| 2026-05-05 15:11 | 57.79609 | 35.21738 | 36795 ft | 471 kts | 145° |
| 2026-05-05 15:12 | 57.74573 | 35.29498 | 36789 ft | 472 kts | 145° |
| 2026-05-05 15:12 | 57.69526 | 35.37256 | 36803 ft | 472 kts | 145° |
| 2026-05-05 15:13 | 57.64475 | 35.44975 | 36797 ft | 470 kts | 146° |
| 2026-05-05 15:13 | 57.59124 | 35.51724 | 36794 ft | 462 kts | 159° |
| 2026-05-05 15:14 | 57.53236 | 35.56024 | 36804 ft | 455 kts | 167° |
| 2026-05-05 15:14 | 57.47229 | 35.59445 | 36804 ft | 453 kts | 168° |
| 2026-05-05 15:15 | 57.41215 | 35.62749 | 36814 ft | 453 kts | 168° |
| 2026-05-05 15:15 | 57.35180 | 35.66120 | 36816 ft | 455 kts | 169° |
| 2026-05-05 15:16 | 57.29243 | 35.70190 | 36812 ft | 461 kts | 159° |
| 2026-05-05 15:16 | 57.23740 | 35.76329 | 36817 ft | 467 kts | 151° |
| 2026-05-05 15:17 | 57.18433 | 35.83258 | 36811 ft | 467 kts | 149° |
| 2026-05-05 15:17 | 57.13149 | 35.90289 | 36822 ft | 467 kts | 149° |
| 2026-05-05 15:18 | 57.07868 | 35.97190 | 36839 ft | 466 kts | 150° |
| 2026-05-05 15:18 | 57.02558 | 36.04010 | 36824 ft | 466 kts | 150° |
| 2026-05-05 15:19 | 56.97193 | 36.10840 | 36815 ft | 468 kts | 150° |
| 2026-05-05 15:19 | 56.94540 | 36.14204 | 36561 ft | 465 kts | 150° |
| 2026-05-05 15:19 | 56.91931 | 36.17508 | 36168 ft | 459 kts | 150° |
| 2026-05-05 15:19 | 56.89301 | 36.20834 | 35736 ft | 461 kts | 151° |
| 2026-05-05 15:20 | 56.86625 | 36.24195 | 35075 ft | 471 kts | 152° |
| 2026-05-05 15:20 | 56.83955 | 36.27538 | 34474 ft | 472 kts | 152° |
| 2026-05-05 15:20 | 56.81240 | 36.30955 | 33700 ft | 475 kts | 150° |
| 2026-05-05 15:20 | 56.78574 | 36.34560 | 32892 ft | 480 kts | 147° |
| 2026-05-05 15:21 | 56.75961 | 36.38385 | 31969 ft | 487 kts | 146° |
| 2026-05-05 15:21 | 56.73293 | 36.42446 | 30987 ft | 493 kts | 145° |
| 2026-05-05 15:21 | 56.70649 | 36.46528 | 30023 ft | 497 kts | 144° |
| 2026-05-05 15:21 | 56.68021 | 36.50586 | 29653 ft | 486 kts | 144° |
| 2026-05-05 15:22 | 56.65423 | 36.54569 | 28914 ft | 485 kts | 145° |
| 2026-05-05 15:22 | 56.62826 | 36.58496 | 28412 ft | 478 kts | 145° |
| 2026-05-05 15:22 | 56.60316 | 36.62256 | 27929 ft | 471 kts | 145° |
| 2026-05-05 15:22 | 56.57821 | 36.65982 | 27721 ft | 459 kts | 146° |
| 2026-05-05 15:23 | 56.55422 | 36.69707 | 27536 ft | 448 kts | 144° |
| 2026-05-05 15:23 | 56.53133 | 36.73433 | 27381 ft | 436 kts | 143° |
| 2026-05-05 15:23 | 56.50911 | 36.77129 | 26902 ft | 432 kts | 143° |
| 2026-05-05 15:23 | 56.48706 | 36.80804 | 26824 ft | 421 kts | 143° |
| 2026-05-05 15:24 | 56.46560 | 36.84358 | 26826 ft | 425 kts | 143° |
| 2026-05-05 15:24 | 56.44327 | 36.88010 | 26824 ft | 433 kts | 143° |
| 2026-05-05 15:24 | 56.42077 | 36.91605 | 26767 ft | 432 kts | 147° |
| 2026-05-05 15:24 | 56.39565 | 36.94405 | 26267 ft | 419 kts | 163° |
| 2026-05-05 15:25 | 56.36862 | 36.95683 | 25680 ft | 402 kts | 181° |
| 2026-05-05 15:25 | 56.34041 | 36.95706 | 25130 ft | 391 kts | 191° |
| 2026-05-05 15:25 | 56.31332 | 36.95225 | 24541 ft | 387 kts | 193° |
| 2026-05-05 15:25 | 56.28656 | 36.94698 | 24004 ft | 384 kts | 192° |
| 2026-05-05 15:26 | 56.25991 | 36.94263 | 23482 ft | 382 kts | 191° |
| 2026-05-05 15:26 | 56.23353 | 36.93948 | 22932 ft | 381 kts | 189° |
| 2026-05-05 15:26 | 56.20703 | 36.93734 | 22403 ft | 379 kts | 188° |
| 2026-05-05 15:26 | 56.18082 | 36.93590 | 21855 ft | 378 kts | 187° |
| 2026-05-05 15:27 | 56.15478 | 36.93485 | 21332 ft | 376 kts | 187° |
| 2026-05-05 15:27 | 56.12854 | 36.93409 | 20785 ft | 375 kts | 186° |
| 2026-05-05 15:27 | 56.10283 | 36.93352 | 20252 ft | 374 kts | 186° |
| 2026-05-05 15:27 | 56.07696 | 36.93302 | 19720 ft | 372 kts | 186° |
| 2026-05-05 15:28 | 56.05096 | 36.93256 | 19177 ft | 370 kts | 186° |
| 2026-05-05 15:28 | 56.02544 | 36.93212 | 18659 ft | 368 kts | 186° |
| 2026-05-05 15:28 | 56.00032 | 36.93170 | 18129 ft | 366 kts | 186° |
| 2026-05-05 15:28 | 55.97472 | 36.93128 | 17617 ft | 364 kts | 186° |
| 2026-05-05 15:29 | 55.94964 | 36.93088 | 17082 ft | 362 kts | 185° |
| 2026-05-05 15:29 | 55.92469 | 36.93101 | 16848 ft | 353 kts | 184° |
| 2026-05-05 15:29 | 55.90069 | 36.93343 | 16834 ft | 342 kts | 181° |
| 2026-05-05 15:29 | 55.87685 | 36.93720 | 16821 ft | 340 kts | 180° |
| 2026-05-05 15:30 | 55.85276 | 36.94125 | 16834 ft | 346 kts | 180° |
| 2026-05-05 15:30 | 55.82875 | 36.94503 | 16598 ft | 350 kts | 180° |
| 2026-05-05 15:30 | 55.80471 | 36.94861 | 16330 ft | 343 kts | 181° |
| 2026-05-05 15:30 | 55.78090 | 36.95205 | 16031 ft | 336 kts | 181° |
| 2026-05-05 15:31 | 55.75732 | 36.95534 | 15684 ft | 331 kts | 181° |
| 2026-05-05 15:31 | 55.73468 | 36.95849 | 15459 ft | 321 kts | 180° |
| 2026-05-05 15:31 | 55.71256 | 36.96310 | 15202 ft | 317 kts | 177° |
| 2026-05-05 15:31 | 55.69064 | 36.96934 | 14681 ft | 320 kts | 175° |
| 2026-05-05 15:32 | 55.66871 | 36.97615 | 14251 ft | 319 kts | 175° |
| 2026-05-05 15:32 | 55.64682 | 36.98280 | 13807 ft | 318 kts | 176° |
| 2026-05-05 15:32 | 55.62454 | 36.98926 | 13384 ft | 315 kts | 176° |
| 2026-05-05 15:32 | 55.60290 | 36.99528 | 12995 ft | 312 kts | 178° |
| 2026-05-05 15:33 | 55.58213 | 36.99799 | 12862 ft | 296 kts | 184° |
| 2026-05-05 15:33 | 55.56176 | 36.99840 | 12588 ft | 290 kts | 186° |
| 2026-05-05 15:33 | 55.54163 | 36.99801 | 12213 ft | 289 kts | 186° |
| 2026-05-05 15:33 | 55.52152 | 36.99754 | 11820 ft | 289 kts | 186° |
| 2026-05-05 15:34 | 55.50167 | 36.99724 | 11428 ft | 289 kts | 185° |
| 2026-05-05 15:34 | 55.48156 | 36.99709 | 11058 ft | 288 kts | 185° |
| 2026-05-05 15:34 | 55.46146 | 36.99705 | 10659 ft | 288 kts | 185° |
| 2026-05-05 15:34 | 55.44170 | 36.99708 | 10273 ft | 287 kts | 185° |
| 2026-05-05 15:35 | 55.42177 | 36.99712 | 10017 ft | 281 kts | 185° |
| 2026-05-05 15:35 | 55.40288 | 36.99660 | 9946 ft | 268 kts | 188° |
| 2026-05-05 15:35 | 55.37870 | 36.99299 | 9773 ft | 255 kts | 192° |
| 2026-05-05 15:35 | 55.36705 | 36.99053 | 9574 ft | 255 kts | 192° |
| 2026-05-05 15:36 | 55.34895 | 36.98649 | 9156 ft | 266 kts | 192° |
| 2026-05-05 15:36 | 55.33035 | 36.98257 | 8795 ft | 270 kts | 191° |
| 2026-05-05 15:36 | 55.31179 | 36.97895 | 8444 ft | 269 kts | 191° |
| 2026-05-05 15:36 | 55.29344 | 36.97558 | 8103 ft | 267 kts | 191° |
| 2026-05-05 15:37 | 55.27510 | 36.97266 | 7998 ft | 259 kts | 187° |
| 2026-05-05 15:37 | 55.25745 | 36.97519 | 7988 ft | 261 kts | 166° |
| 2026-05-05 15:37 | 55.24183 | 36.99264 | 7903 ft | 276 kts | 133° |
| 2026-05-05 15:37 | 55.23373 | 37.02245 | 7578 ft | 277 kts | 97° |
| 2026-05-05 15:38 | 55.23578 | 37.05533 | 7313 ft | 268 kts | 71° |
| 2026-05-05 15:38 | 55.24020 | 37.08620 | 6973 ft | 264 kts | 88° |
| 2026-05-05 15:38 | 55.23798 | 37.11760 | 6606 ft | 257 kts | 106° |
| 2026-05-05 15:38 | 55.23424 | 37.14790 | 6198 ft | 254 kts | 100° |
| 2026-05-05 15:39 | 55.23194 | 37.17845 | 5755 ft | 251 kts | 97° |
| 2026-05-05 15:39 | 55.22997 | 37.20823 | 5390 ft | 246 kts | 98° |
| 2026-05-05 15:39 | 55.22776 | 37.23759 | 5149 ft | 240 kts | 98° |
| 2026-05-05 15:39 | 55.22541 | 37.26592 | 4901 ft | 236 kts | 99° |
| 2026-05-05 15:40 | 55.22321 | 37.29437 | 4654 ft | 234 kts | 94° |
| 2026-05-05 15:40 | 55.22483 | 37.32229 | 4406 ft | 233 kts | 67° |
| 2026-05-05 15:40 | 55.23362 | 37.34513 | 4163 ft | 223 kts | 38° |
| 2026-05-05 15:40 | 55.24611 | 37.36036 | 3915 ft | 215 kts | 23° |
| 2026-05-05 15:41 | 55.25979 | 37.36846 | 3668 ft | 207 kts | 1° |
| 2026-05-05 15:41 | 55.27406 | 37.36919 | 3483 ft | 202 kts | 354° |
| 2026-05-05 15:41 | 55.28798 | 37.36913 | 3361 ft | 203 kts | 355° |
| 2026-05-05 15:41 | 55.30219 | 37.36966 | 3236 ft | 203 kts | 356° |
| 2026-05-05 15:42 | 55.31649 | 37.37073 | 3121 ft | 208 kts | 0° |
| 2026-05-05 15:42 | 55.33135 | 37.37419 | 3006 ft | 227 kts | 5° |
| 2026-05-05 15:42 | 55.34734 | 37.37943 | 2874 ft | 236 kts | 7° |
| 2026-05-05 15:42 | 55.36338 | 37.38483 | 2747 ft | 237 kts | 7° |
| 2026-05-05 15:43 | 55.37962 | 37.39004 | 2624 ft | 235 kts | 6° |
| 2026-05-05 15:43 | 55.39566 | 37.39502 | 2496 ft | 233 kts | 6° |
| 2026-05-05 15:43 | 55.41168 | 37.39993 | 2375 ft | 236 kts | 6° |
| 2026-05-05 15:43 | 55.42796 | 37.40495 | 2257 ft | 236 kts | 6° |
| 2026-05-05 15:44 | 55.44402 | 37.40995 | 2216 ft | 233 kts | 7° |
| 2026-05-05 15:44 | 55.45987 | 37.41489 | 2214 ft | 234 kts | 7° |
| 2026-05-05 15:44 | 55.47604 | 37.41989 | 2212 ft | 233 kts | 7° |
| 2026-05-05 15:44 | 55.49189 | 37.42479 | 2213 ft | 234 kts | 7° |
| 2026-05-05 15:45 | 55.50796 | 37.42979 | 2211 ft | 232 kts | 7° |
| 2026-05-05 15:45 | 55.52375 | 37.43477 | 2213 ft | 234 kts | 7° |
| 2026-05-05 15:45 | 55.53984 | 37.43981 | 2212 ft | 234 kts | 7° |
| 2026-05-05 15:45 | 55.55564 | 37.44472 | 2207 ft | 223 kts | 7° |
| 2026-05-05 15:46 | 55.57019 | 37.44930 | 2217 ft | 205 kts | 6° |
| 2026-05-05 15:46 | 55.58383 | 37.45357 | 2200 ft | 194 kts | 6° |
| 2026-05-05 15:46 | 55.59708 | 37.45750 | 2105 ft | 194 kts | 4° |
| 2026-05-05 15:46 | 55.61038 | 37.45653 | 1978 ft | 188 kts | 336° |
| 2026-05-05 15:47 | 55.61971 | 37.44351 | 1867 ft | 164 kts | 299° |
| 2026-05-05 15:47 | 55.62406 | 37.42583 | 1790 ft | 151 kts | 283° |
| 2026-05-05 15:47 | 55.62406 | 37.40759 | 1687 ft | 147 kts | 253° |
| 2026-05-05 15:47 | 55.62067 | 37.39071 | 1706 ft | 149 kts | 248° |
| 2026-05-05 15:48 | 55.61676 | 37.37379 | 1694 ft | 148 kts | 247° |
| 2026-05-05 15:48 | 55.61277 | 37.35657 | 1507 ft | 157 kts | 248° |
| 2026-05-05 15:48 | 55.60879 | 37.33839 | 1322 ft | 159 kts | 249° |
| 2026-05-05 15:48 | 55.60475 | 37.31999 | 1060 ft | 158 kts | 247° |
| 2026-05-05 15:49 | 55.60070 | 37.30238 | 916 ft | 154 kts | 246° |
| 2026-05-05 15:49 | 55.59670 | 37.28434 | 705 ft | 154 kts | 246° |
| 2026-05-05 15:49 | 55.59314 | 37.26870 | 691 ft | 117 kts | 250° |
| 2026-05-05 15:49 | 55.59100 | 37.25895 | 691 ft | 53 kts | 250° |
| 2026-05-05 15:50 | 55.59016 | 37.25507 | 691 ft | 22 kts | 249° |
| 2026-05-05 15:50 | 55.59020 | 37.25376 | 691 ft | 0 kts | 300° |
| 2026-05-05 15:50 | 55.59024 | 37.25366 | 691 ft | 0 kts | 304° |
| 2026-05-05 15:51 | 55.59024 | 37.25364 | 691 ft | 0 kts | 305° |
| 2026-05-05 15:51 | 55.59026 | 37.25361 | 691 ft | 0 kts | 304° |
| 2026-05-05 15:51 | 55.59034 | 37.25339 | 691 ft | 0 kts | 306° |
| 2026-05-05 15:52 | 55.59035 | 37.25339 | 691 ft | 0 kts | 311° |
| 2026-05-05 15:52 | 55.59064 | 37.25286 | 691 ft | 0 kts | 315° |
| 2026-05-05 15:52 | 55.59064 | 37.25285 | 691 ft | 0 kts | 315° |
| 2026-05-05 15:52 | 55.59065 | 37.25285 | 691 ft | 0 kts | 316° |
| 2026-05-05 15:54 | 55.59066 | 37.25283 | 691 ft | 1 kts | 316° |
| 2026-05-05 15:54 | 55.59070 | 37.25277 | 691 ft | 0 kts | 332° |
| 2026-05-05 15:55 | 55.59080 | 37.25268 | 691 ft | 3 kts | 335° |
| 2026-05-05 15:56 | 55.59081 | 37.25267 | 691 ft | 0 kts | 338° |
| 2026-05-05 15:57 | 55.59085 | 37.25265 | 691 ft | 2 kts | 344° |
| 2026-05-05 15:57 | 55.59086 | 37.25265 | 691 ft | 0 kts | 344° |
| 2026-05-05 15:57 | 55.59094 | 37.25262 | 691 ft | 0 kts | 347° |
| 2026-05-05 15:58 | 55.59103 | 37.25258 | 691 ft | 1 kts | 344° |
| 2026-05-05 15:58 | 55.59124 | 37.25247 | 691 ft | 4 kts | 343° |
| 2026-05-05 15:58 | 55.59148 | 37.25241 | 691 ft | 6 kts | 2° |
| 2026-05-05 15:59 | 55.59177 | 37.25259 | 691 ft | 4 kts | 37° |
| 2026-05-05 15:59 | 55.59205 | 37.25337 | 691 ft | 6 kts | 69° |
| 2026-05-05 15:59 | 55.59217 | 37.25395 | 691 ft | 5 kts | 67° |
| 2026-05-05 15:59 | 55.59234 | 37.25462 | 691 ft | 5 kts | 67° |
| 2026-05-05 16:00 | 55.59247 | 37.25523 | 691 ft | 8 kts | 68° |
| 2026-05-05 16:00 | 55.59268 | 37.25618 | 691 ft | 7 kts | 69° |
| 2026-05-05 16:00 | 55.59286 | 37.25699 | 691 ft | 5 kts | 68° |
| 2026-05-05 16:00 | 55.59301 | 37.25763 | 691 ft | 5 kts | 68° |
| 2026-05-05 16:01 | 55.59317 | 37.25839 | 691 ft | 7 kts | 69° |
| 2026-05-05 16:01 | 55.59342 | 37.25947 | 691 ft | 9 kts | 69° |
| 2026-05-05 16:01 | 55.59362 | 37.26041 | 691 ft | 7 kts | 68° |
| 2026-05-05 16:01 | 55.59381 | 37.26124 | 691 ft | 6 kts | 68° |
| 2026-05-05 16:02 | 55.59396 | 37.26193 | 691 ft | 5 kts | 69° |
| 2026-05-05 16:02 | 55.59408 | 37.26248 | 691 ft | 4 kts | 68° |
| 2026-05-05 16:02 | 55.59429 | 37.26339 | 691 ft | 12 kts | 70° |
| 2026-05-05 16:02 | 55.59452 | 37.26436 | 691 ft | 8 kts | 66° |
| 2026-05-05 16:03 | 55.59475 | 37.26539 | 691 ft | 8 kts | 69° |
| 2026-05-05 16:03 | 55.59494 | 37.26625 | 691 ft | 6 kts | 67° |
| 2026-05-05 16:03 | 55.59508 | 37.26687 | 691 ft | 4 kts | 71° |
| 2026-05-05 16:03 | 55.59524 | 37.26747 | 691 ft | 4 kts | 58° |
| 2026-05-05 16:04 | 55.59541 | 37.26802 | 691 ft | 5 kts | 63° |
| 2026-05-05 16:04 | 55.59562 | 37.26859 | 691 ft | 10 kts | 52° |
| 2026-05-05 16:04 | 55.59616 | 37.26968 | 691 ft | 11 kts | 47° |
| 2026-05-05 16:04 | 55.59665 | 37.27061 | 691 ft | 9 kts | 47° |
| 2026-05-05 16:05 | 55.59707 | 37.27139 | 691 ft | 7 kts | 46° |
| 2026-05-05 16:05 | 55.59743 | 37.27205 | 691 ft | 8 kts | 45° |
| 2026-05-05 16:05 | 55.59797 | 37.27303 | 691 ft | 10 kts | 46° |
| 2026-05-05 16:05 | 55.59845 | 37.27392 | 691 ft | 11 kts | 46° |
| 2026-05-05 16:06 | 55.59895 | 37.27483 | 691 ft | 9 kts | 45° |
| 2026-05-05 16:06 | 55.59923 | 37.27540 | 691 ft | 1 kts | 72° |
| 2026-05-05 16:06 | 55.59924 | 37.27548 | 691 ft | 1 kts | 74° |
| 2026-05-05 16:06 | 55.59924 | 37.27551 | 691 ft | 1 kts | 67° |
| 2026-05-05 16:07 | 55.59928 | 37.27578 | 691 ft | 0 kts | 81° |
| 2026-05-05 16:07 | 55.59930 | 37.27617 | 691 ft | 5 kts | 82° |
| 2026-05-05 16:07 | 55.59935 | 37.27679 | 691 ft | 4 kts | 83° |
| 2026-05-05 16:07 | 55.59938 | 37.27725 | 691 ft | 3 kts | 84° |
| 2026-05-05 16:08 | 55.59939 | 37.27743 | 691 ft | 0 kts | 84° |